Coeur D'Alene - Pappy Boyington Field
KCOE : rendu visible

Aérodrome :











RETROUVEZ-NOUS SUR...

 
LOGIN :

S'inscrire | Disclaimer

   EN    FR    IT 

 









Légende :    VFR   VFR Marginal   IFR   IFR Intensif   IFR Très Intensif
Visi : 
Plafond : 
>= 8 km
>= 3000ft
5 à 8 km
1000 à 3000 ft
1500m à 5 km
500 à 1000 ft
800 à 1500m
200 à 500 ft
< 800m
< 200 ft
Symboles :   Orages  Brouillard  Fortes neiges  Fortes précipitations  Vent > 20 kt






- Altitude de l'aérodrome : 2320 ft


KCOE - Coeur D'Alene - Pappy Boyington Field

DERNIER METAR :
  • 011056Z AUTO 21003KT 10SM CLR M03/M04 A3043 RMK AO2 SLP349 T10331044 FZRANO

METARs EXPIRÉS :
  • 010956Z AUTO 00000KT 10SM CLR M03/M04 A3042 RMK AO2 SLP345 T10331044 FZRANO
  • 010856Z AUTO VRB03KT 10SM CLR M02/M03 A3039 RMK AO2 SLP335 T10171028 51030 FZRANO

TAF KCOE
Valide du 01 à 12h jusqu'au 02 à 12h UTC


011132Z 0112/0212 23005KT 6SM BR FEW002 SCT015
FM011400 22003KT P6SM SCT012 OVC025
FM011900 VRB03KT P6SM BKN015
FM012200 06004KT P6SM SCT015
FM020400 03008KT P6SM SCT025
FIR KZSE / Amérique du Nord



MET'MAP, la Météo Aéronautique d'un coup d'oeil ! - Copyright ORBIFLY Décembre 2007 - Disclaimer

ORBIFLY MET'MAP TEAM :

Programmation & Développement : Alexandra Zaïnal
Sur une idée originale de : Baudouin d'Aumeries
Assistance à la programmation : Marc-Olivier Méhu
Soutien technique & logistique : Manuel Goepfert

Contact : metmap@orbifly.com




SOURCES & CREDITS :

   NOAA       Earth
Advisory